sensor_id;sensor_type;location;lat;lon;timestamp;pressure;altitude;pressure_sealevel;temperature;humidity
12785;BME280;6456;42.680;23.260;2022-12-29T00:00:20;95535.97;;;6.55;100.00
12785;BME280;6456;42.680;23.260;2022-12-29T00:02:47;95478.81;;;6.11;100.00
12785;BME280;6456;42.680;23.260;2022-12-29T00:05:14;95564.88;;;6.77;100.00
12785;BME280;6456;42.680;23.260;2022-12-29T00:07:43;95556.22;;;6.69;100.00
12785;BME280;6456;42.680;23.260;2022-12-29T00:10:10;95477.03;;;6.20;100.00
12785;BME280;6456;42.680;23.260;2022-12-29T00:12:36;95508.84;;;6.39;100.00
12785;BME280;6456;42.680;23.260;2022-12-29T00:15:21;95505.91;;;6.34;100.00
12785;BME280;6456;42.680;23.260;2022-12-29T00:18:06;95437.88;;;5.96;100.00
12785;BME280;6456;42.680;23.260;2022-12-29T00:20:34;95488.81;;;6.16;100.00
12785;BME280;6456;42.680;23.260;2022-12-29T00:23:21;95602.44;;;6.84;100.00
12785;BME280;6456;42.680;23.260;2022-12-29T00:26:12;95565.03;;;6.68;100.00
12785;BME280;6456;42.680;23.260;2022-12-29T00:28:56;95567.16;;;6.64;100.00
12785;BME280;6456;42.680;23.260;2022-12-29T00:31:40;95606.91;;;6.84;100.00
12785;BME280;6456;42.680;23.260;2022-12-29T00:34:25;95591.53;;;6.73;100.00
12785;BME280;6456;42.680;23.260;2022-12-29T00:37:09;95572.56;;;6.63;100.00
12785;BME280;6456;42.680;23.260;2022-12-29T00:39:37;95599.03;;;6.84;100.00
12785;BME280;6456;42.680;23.260;2022-12-29T00:42:21;95568.50;;;6.52;100.00
12785;BME280;6456;42.680;23.260;2022-12-29T00:45:06;95616.84;;;6.80;100.00
12785;BME280;6456;42.680;23.260;2022-12-29T00:47:33;95617.19;;;6.77;100.00
12785;BME280;6456;42.680;23.260;2022-12-29T00:50:00;95591.19;;;6.68;100.00
12785;BME280;6456;42.680;23.260;2022-12-29T00:52:26;95500.72;;;6.10;100.00
12785;BME280;6456;42.680;23.260;2022-12-29T00:54:54;95548.56;;;6.35;100.00
12785;BME280;6456;42.680;23.260;2022-12-29T00:57:21;95602.66;;;6.59;100.00
12785;BME280;6456;42.680;23.260;2022-12-29T00:59:48;95535.00;;;5.99;100.00
12785;BME280;6456;42.680;23.260;2022-12-29T01:02:15;95548.38;;;6.04;100.00
12785;BME280;6456;42.680;23.260;2022-12-29T01:04:42;95501.50;;;5.78;100.00
12785;BME280;6456;42.680;23.260;2022-12-29T01:07:09;95497.94;;;5.88;100.00
12785;BME280;6456;42.680;23.260;2022-12-29T01:09:35;95526.84;;;6.02;100.00
12785;BME280;6456;42.680;23.260;2022-12-29T01:12:21;95594.31;;;6.31;100.00
12785;BME280;6456;42.680;23.260;2022-12-29T01:15:07;95601.97;;;6.24;100.00
12785;BME280;6456;42.680;23.260;2022-12-29T01:17:34;95520.91;;;5.76;100.00
12785;BME280;6456;42.680;23.260;2022-12-29T01:20:02;95581.88;;;6.17;100.00
12785;BME280;6456;42.680;23.260;2022-12-29T01:22:29;95577.97;;;6.13;100.00
12785;BME280;6456;42.680;23.260;2022-12-29T01:24:56;95529.59;;;5.85;100.00
12785;BME280;6456;42.680;23.260;2022-12-29T01:27:24;95482.19;;;5.55;100.00
12785;BME280;6456;42.680;23.260;2022-12-29T01:29:51;95517.81;;;5.80;100.00
12785;BME280;6456;42.680;23.260;2022-12-29T01:32:18;95576.34;;;6.20;100.00
12785;BME280;6456;42.680;23.260;2022-12-29T01:34:45;95504.94;;;5.87;100.00
12785;BME280;6456;42.680;23.260;2022-12-29T01:37:12;95563.41;;;6.26;100.00
12785;BME280;6456;42.680;23.260;2022-12-29T01:39:39;95565.56;;;6.31;100.00
12785;BME280;6456;42.680;23.260;2022-12-29T01:42:12;95571.91;;;6.36;100.00
12785;BME280;6456;42.680;23.260;2022-12-29T01:44:54;95512.47;;;6.06;100.00
12785;BME280;6456;42.680;23.260;2022-12-29T01:47:30;95535.03;;;6.23;100.00
12785;BME280;6456;42.680;23.260;2022-12-29T01:50:00;95565.72;;;6.45;100.00
12785;BME280;6456;42.680;23.260;2022-12-29T01:52:29;95560.31;;;6.39;100.00
12785;BME280;6456;42.680;23.260;2022-12-29T01:54:59;95488.31;;;5.88;100.00
12785;BME280;6456;42.680;23.260;2022-12-29T01:57:29;95535.00;;;6.07;100.00
12785;BME280;6456;42.680;23.260;2022-12-29T02:00:02;95483.22;;;5.70;100.00
12785;BME280;6456;42.680;23.260;2022-12-29T02:02:31;95572.56;;;6.22;100.00
12785;BME280;6456;42.680;23.260;2022-12-29T02:04:59;95545.47;;;6.07;100.00
12785;BME280;6456;42.680;23.260;2022-12-29T02:07:29;95487.28;;;5.73;100.00
12785;BME280;6456;42.680;23.260;2022-12-29T02:09:57;95579.44;;;6.15;100.00
12785;BME280;6456;42.680;23.260;2022-12-29T02:12:26;95413.81;;;5.36;100.00
12785;BME280;6456;42.680;23.260;2022-12-29T02:14:57;95461.00;;;5.66;100.00
12785;BME280;6456;42.680;23.260;2022-12-29T02:17:40;95406.81;;;5.44;100.00
12785;BME280;6456;42.680;23.260;2022-12-29T02:23:23;95548.41;;;6.36;100.00
12785;BME280;6456;42.680;23.260;2022-12-29T02:26:21;95553.47;;;6.38;100.00
12785;BME280;6456;42.680;23.260;2022-12-29T02:29:26;95530.44;;;6.17;100.00
12785;BME280;6456;42.680;23.260;2022-12-29T02:32:01;95473.59;;;5.71;100.00
12785;BME280;6456;42.680;23.260;2022-12-29T02:34:36;95483.03;;;5.72;100.00
12785;BME280;6456;42.680;23.260;2022-12-29T02:37:17;95432.09;;;5.52;100.00
12785;BME280;6456;42.680;23.260;2022-12-29T02:39:52;95498.06;;;5.78;100.00
12785;BME280;6456;42.680;23.260;2022-12-29T02:42:27;95480.44;;;5.80;100.00
12785;BME280;6456;42.680;23.260;2022-12-29T02:45:02;95559.19;;;6.33;100.00
12785;BME280;6456;42.680;23.260;2022-12-29T02:47:36;95547.28;;;6.23;100.00
12785;BME280;6456;42.680;23.260;2022-12-29T02:50:08;95554.94;;;6.32;100.00
12785;BME280;6456;42.680;23.260;2022-12-29T02:52:44;95507.91;;;6.00;100.00
12785;BME280;6456;42.680;23.260;2022-12-29T02:55:13;95477.53;;;5.91;100.00
12785;BME280;6456;42.680;23.260;2022-12-29T02:57:38;95448.13;;;5.73;100.00
12785;BME280;6456;42.680;23.260;2022-12-29T03:00:07;95454.97;;;5.82;100.00
12785;BME280;6456;42.680;23.260;2022-12-29T03:06:01;95469.69;;;5.99;100.00
12785;BME280;6456;42.680;23.260;2022-12-29T03:08:37;95473.28;;;5.98;100.00
12785;BME280;6456;42.680;23.260;2022-12-29T03:11:10;95540.22;;;6.47;100.00
12785;BME280;6456;42.680;23.260;2022-12-29T03:14:02;95488.94;;;6.14;100.00
12785;BME280;6456;42.680;23.260;2022-12-29T03:16:52;95484.88;;;6.12;100.00
12785;BME280;6456;42.680;23.260;2022-12-29T03:19:23;95522.94;;;6.38;100.00
12785;BME280;6456;42.680;23.260;2022-12-29T03:21:55;95410.25;;;5.77;100.00
12785;BME280;6456;42.680;23.260;2022-12-29T03:24:43;95482.75;;;6.23;100.00
12785;BME280;6456;42.680;23.260;2022-12-29T03:27:16;95443.59;;;5.91;100.00
12785;BME280;6456;42.680;23.260;2022-12-29T03:29:47;95424.44;;;5.74;100.00
12785;BME280;6456;42.680;23.260;2022-12-29T03:32:19;95523.91;;;6.37;100.00
12785;BME280;6456;42.680;23.260;2022-12-29T03:34:47;95518.16;;;6.34;100.00
12785;BME280;6456;42.680;23.260;2022-12-29T03:37:21;95540.56;;;6.44;100.00
12785;BME280;6456;42.680;23.260;2022-12-29T03:39:48;95464.47;;;5.91;100.00
12785;BME280;6456;42.680;23.260;2022-12-29T03:42:19;95528.63;;;6.34;100.00
12785;BME280;6456;42.680;23.260;2022-12-29T03:44:47;95516.41;;;6.18;100.00
12785;BME280;6456;42.680;23.260;2022-12-29T03:47:14;95448.81;;;5.91;100.00
12785;BME280;6456;42.680;23.260;2022-12-29T03:49:41;95536.97;;;6.37;100.00
12785;BME280;6456;42.680;23.260;2022-12-29T03:52:08;95528.47;;;6.27;100.00
12785;BME280;6456;42.680;23.260;2022-12-29T03:54:36;95547.41;;;6.29;100.00
12785;BME280;6456;42.680;23.260;2022-12-29T03:57:03;95560.34;;;6.23;100.00
12785;BME280;6456;42.680;23.260;2022-12-29T03:59:30;95527.81;;;6.09;100.00
12785;BME280;6456;42.680;23.260;2022-12-29T04:01:57;95559.84;;;6.19;100.00
12785;BME280;6456;42.680;23.260;2022-12-29T04:04:23;95536.47;;;6.02;100.00
12785;BME280;6456;42.680;23.260;2022-12-29T04:06:50;95512.75;;;5.71;100.00
12785;BME280;6456;42.680;23.260;2022-12-29T04:09:17;95524.50;;;5.75;100.00
12785;BME280;6456;42.680;23.260;2022-12-29T04:11:46;95525.16;;;5.77;100.00
12785;BME280;6456;42.680;23.260;2022-12-29T04:14:13;95508.47;;;5.62;100.00
12785;BME280;6456;42.680;23.260;2022-12-29T04:16:40;95537.94;;;5.88;100.00
12785;BME280;6456;42.680;23.260;2022-12-29T04:19:07;95555.72;;;5.85;100.00
12785;BME280;6456;42.680;23.260;2022-12-29T04:21:34;95516.44;;;5.52;100.00
12785;BME280;6456;42.680;23.260;2022-12-29T04:24:01;95506.63;;;5.46;100.00
12785;BME280;6456;42.680;23.260;2022-12-29T04:26:31;95456.19;;;5.13;100.00
12785;BME280;6456;42.680;23.260;2022-12-29T04:29:00;95532.28;;;5.59;100.00
12785;BME280;6456;42.680;23.260;2022-12-29T04:31:27;95524.28;;;5.52;100.00
12785;BME280;6456;42.680;23.260;2022-12-29T04:33:54;95487.00;;;5.26;100.00
12785;BME280;6456;42.680;23.260;2022-12-29T04:36:22;95458.72;;;4.97;100.00
12785;BME280;6456;42.680;23.260;2022-12-29T04:38:49;95554.81;;;5.60;100.00
12785;BME280;6456;42.680;23.260;2022-12-29T04:41:16;95553.34;;;5.57;100.00
12785;BME280;6456;42.680;23.260;2022-12-29T04:43:43;95542.34;;;5.38;100.00
12785;BME280;6456;42.680;23.260;2022-12-29T04:46:11;95568.97;;;5.49;100.00
12785;BME280;6456;42.680;23.260;2022-12-29T04:48:38;95560.50;;;5.47;100.00
12785;BME280;6456;42.680;23.260;2022-12-29T04:51:05;95568.50;;;5.54;100.00
12785;BME280;6456;42.680;23.260;2022-12-29T04:53:32;95555.28;;;5.47;100.00
12785;BME280;6456;42.680;23.260;2022-12-29T04:55:59;95463.91;;;4.89;100.00
12785;BME280;6456;42.680;23.260;2022-12-29T04:58:26;95576.78;;;5.41;100.00
12785;BME280;6456;42.680;23.260;2022-12-29T05:00:53;95507.28;;;4.90;100.00
12785;BME280;6456;42.680;23.260;2022-12-29T05:03:22;95469.50;;;4.69;100.00
12785;BME280;6456;42.680;23.260;2022-12-29T05:05:48;95471.97;;;4.70;100.00
12785;BME280;6456;42.680;23.260;2022-12-29T05:08:15;95502.75;;;5.00;100.00
12785;BME280;6456;42.680;23.260;2022-12-29T05:10:44;95607.50;;;5.55;100.00
12785;BME280;6456;42.680;23.260;2022-12-29T05:13:12;95600.34;;;5.57;100.00
12785;BME280;6456;42.680;23.260;2022-12-29T05:15:38;95607.03;;;5.60;100.00
12785;BME280;6456;42.680;23.260;2022-12-29T05:18:05;95577.94;;;5.47;100.00
12785;BME280;6456;42.680;23.260;2022-12-29T05:20:33;95596.41;;;5.61;100.00
12785;BME280;6456;42.680;23.260;2022-12-29T05:23:00;95552.09;;;5.28;100.00
12785;BME280;6456;42.680;23.260;2022-12-29T05:25:27;95511.63;;;5.15;100.00
12785;BME280;6456;42.680;23.260;2022-12-29T05:27:54;95595.63;;;5.69;100.00
12785;BME280;6456;42.680;23.260;2022-12-29T05:30:21;95523.06;;;5.23;100.00
12785;BME280;6456;42.680;23.260;2022-12-29T05:32:47;95594.16;;;5.66;100.00
12785;BME280;6456;42.680;23.260;2022-12-29T05:35:15;95598.25;;;5.69;100.00
12785;BME280;6456;42.680;23.260;2022-12-29T05:37:43;95569.78;;;5.50;100.00
12785;BME280;6456;42.680;23.260;2022-12-29T05:40:11;95523.88;;;5.23;100.00
12785;BME280;6456;42.680;23.260;2022-12-29T05:42:38;95583.53;;;5.60;100.00
12785;BME280;6456;42.680;23.260;2022-12-29T05:45:06;95561.00;;;5.51;100.00
12785;BME280;6456;42.680;23.260;2022-12-29T05:47:33;95601.19;;;5.74;100.00
12785;BME280;6456;42.680;23.260;2022-12-29T05:50:01;95563.75;;;5.49;100.00
12785;BME280;6456;42.680;23.260;2022-12-29T05:52:28;95602.34;;;5.79;100.00
12785;BME280;6456;42.680;23.260;2022-12-29T05:54:56;95559.53;;;5.56;100.00
12785;BME280;6456;42.680;23.260;2022-12-29T05:57:23;95508.03;;;5.16;100.00
12785;BME280;6456;42.680;23.260;2022-12-29T05:59:50;95594.34;;;5.73;100.00
12785;BME280;6456;42.680;23.260;2022-12-29T06:02:16;95500.19;;;5.16;100.00
12785;BME280;6456;42.680;23.260;2022-12-29T06:04:43;95514.56;;;5.29;100.00
12785;BME280;6456;42.680;23.260;2022-12-29T06:07:10;95610.75;;;5.91;100.00
12785;BME280;6456;42.680;23.260;2022-12-29T06:09:37;95567.22;;;5.58;100.00
12785;BME280;6456;42.680;23.260;2022-12-29T06:12:06;95586.53;;;5.73;100.00
12785;BME280;6456;42.680;23.260;2022-12-29T06:14:33;95594.22;;;5.82;100.00
12785;BME280;6456;42.680;23.260;2022-12-29T06:17:00;95615.31;;;5.89;100.00
12785;BME280;6456;42.680;23.260;2022-12-29T06:19:26;95614.16;;;5.92;100.00
12785;BME280;6456;42.680;23.260;2022-12-29T06:21:53;95612.03;;;5.87;100.00
12785;BME280;6456;42.680;23.260;2022-12-29T06:24:20;95567.03;;;5.59;100.00
12785;BME280;6456;42.680;23.260;2022-12-29T06:26:47;95558.25;;;5.60;100.00
12785;BME280;6456;42.680;23.260;2022-12-29T06:29:15;95626.44;;;5.99;100.00
12785;BME280;6456;42.680;23.260;2022-12-29T06:31:43;95598.50;;;5.92;100.00
12785;BME280;6456;42.680;23.260;2022-12-29T06:34:10;95547.78;;;5.52;100.00
12785;BME280;6456;42.680;23.260;2022-12-29T06:36:38;95570.69;;;5.74;100.00
12785;BME280;6456;42.680;23.260;2022-12-29T06:39:05;95603.59;;;6.01;100.00
12785;BME280;6456;42.680;23.260;2022-12-29T06:41:31;95625.16;;;6.11;100.00
12785;BME280;6456;42.680;23.260;2022-12-29T06:43:58;95625.66;;;6.15;100.00
12785;BME280;6456;42.680;23.260;2022-12-29T06:46:26;95585.59;;;5.90;100.00
12785;BME280;6456;42.680;23.260;2022-12-29T06:48:53;95584.31;;;5.86;100.00
12785;BME280;6456;42.680;23.260;2022-12-29T06:51:20;95589.53;;;6.02;100.00
12785;BME280;6456;42.680;23.260;2022-12-29T06:53:47;95574.84;;;5.93;100.00
12785;BME280;6456;42.680;23.260;2022-12-29T06:56:14;95590.53;;;6.09;100.00
12785;BME280;6456;42.680;23.260;2022-12-29T06:58:41;95612.13;;;6.27;100.00
12785;BME280;6456;42.680;23.260;2022-12-29T07:01:08;95547.91;;;5.93;100.00
12785;BME280;6456;42.680;23.260;2022-12-29T07:03:36;95599.69;;;6.21;100.00
12785;BME280;6456;42.680;23.260;2022-12-29T07:06:04;95599.00;;;5.95;100.00
12785;BME280;6456;42.680;23.260;2022-12-29T07:08:31;95615.31;;;5.89;100.00
12785;BME280;6456;42.680;23.260;2022-12-29T07:10:58;95584.81;;;5.48;100.00
12785;BME280;6456;42.680;23.260;2022-12-29T07:13:24;95642.66;;;5.77;100.00
12785;BME280;6456;42.680;23.260;2022-12-29T07:15:51;95643.66;;;5.84;100.00
12785;BME280;6456;42.680;23.260;2022-12-29T07:18:18;95539.53;;;5.31;100.00
12785;BME280;6456;42.680;23.260;2022-12-29T07:20:46;95537.28;;;5.28;100.00
12785;BME280;6456;42.680;23.260;2022-12-29T07:23:13;95610.28;;;5.62;100.00
12785;BME280;6456;42.680;23.260;2022-12-29T07:25:40;95534.75;;;5.10;100.00
12785;BME280;6456;42.680;23.260;2022-12-29T07:28:07;95589.38;;;5.46;100.00
12785;BME280;6456;42.680;23.260;2022-12-29T07:30:36;95624.47;;;5.59;100.00
12785;BME280;6456;42.680;23.260;2022-12-29T07:33:04;95584.03;;;5.22;100.00
12785;BME280;6456;42.680;23.260;2022-12-29T07:35:30;95517.97;;;4.79;100.00
12785;BME280;6456;42.680;23.260;2022-12-29T07:37:59;95551.72;;;5.14;100.00
12785;BME280;6456;42.680;23.260;2022-12-29T07:40:25;95636.44;;;5.70;100.00
12785;BME280;6456;42.680;23.260;2022-12-29T07:43:11;95634.28;;;5.91;100.00
12785;BME280;6456;42.680;23.260;2022-12-29T07:45:38;95593.66;;;5.63;100.00
12785;BME280;6456;42.680;23.260;2022-12-29T07:48:05;95533.19;;;5.26;100.00
12785;BME280;6456;42.680;23.260;2022-12-29T07:50:33;95582.53;;;5.53;100.00
12785;BME280;6456;42.680;23.260;2022-12-29T07:53:02;95579.56;;;5.40;100.00
12785;BME280;6456;42.680;23.260;2022-12-29T07:55:29;95567.75;;;5.28;100.00
12785;BME280;6456;42.680;23.260;2022-12-29T07:57:56;95639.09;;;5.78;100.00
12785;BME280;6456;42.680;23.260;2022-12-29T08:00:23;95646.63;;;5.81;100.00
12785;BME280;6456;42.680;23.260;2022-12-29T08:02:50;95557.00;;;5.31;100.00
12785;BME280;6456;42.680;23.260;2022-12-29T08:05:17;95558.94;;;5.29;100.00
12785;BME280;6456;42.680;23.260;2022-12-29T08:07:44;95564.06;;;5.46;100.00
12785;BME280;6456;42.680;23.260;2022-12-29T08:10:13;95593.97;;;5.60;100.00
12785;BME280;6456;42.680;23.260;2022-12-29T08:12:41;95539.88;;;5.36;100.00
12785;BME280;6456;42.680;23.260;2022-12-29T08:15:10;95629.69;;;5.93;100.00
12785;BME280;6456;42.680;23.260;2022-12-29T08:17:37;95627.59;;;6.05;100.00
12785;BME280;6456;42.680;23.260;2022-12-29T08:20:05;95584.72;;;5.73;100.00
12785;BME280;6456;42.680;23.260;2022-12-29T08:22:32;95592.41;;;5.75;100.00
12785;BME280;6456;42.680;23.260;2022-12-29T08:24:59;95545.66;;;5.48;100.00
12785;BME280;6456;42.680;23.260;2022-12-29T08:27:28;95632.66;;;6.06;100.00
12785;BME280;6456;42.680;23.260;2022-12-29T08:29:54;95561.06;;;5.75;100.00
12785;BME280;6456;42.680;23.260;2022-12-29T08:32:21;95646.44;;;6.32;100.00
12785;BME280;6456;42.680;23.260;2022-12-29T08:34:48;95540.66;;;5.78;100.00
12785;BME280;6456;42.680;23.260;2022-12-29T08:37:15;95647.56;;;6.54;100.00
12785;BME280;6456;42.680;23.260;2022-12-29T08:39:42;95632.22;;;6.43;100.00
12785;BME280;6456;42.680;23.260;2022-12-29T08:42:08;95585.81;;;6.13;100.00
12785;BME280;6456;42.680;23.260;2022-12-29T08:44:37;95613.09;;;6.42;100.00
12785;BME280;6456;42.680;23.260;2022-12-29T08:47:03;95646.09;;;6.92;100.00
12785;BME280;6456;42.680;23.260;2022-12-29T08:49:30;95593.00;;;6.75;100.00
12785;BME280;6456;42.680;23.260;2022-12-29T08:51:59;95649.19;;;7.11;100.00
12785;BME280;6456;42.680;23.260;2022-12-29T08:54:28;95645.25;;;7.24;100.00
12785;BME280;6456;42.680;23.260;2022-12-29T08:57:05;95649.97;;;7.28;100.00
12785;BME280;6456;42.680;23.260;2022-12-29T08:59:32;95576.47;;;6.67;100.00
12785;BME280;6456;42.680;23.260;2022-12-29T09:02:01;95593.50;;;6.79;100.00
12785;BME280;6456;42.680;23.260;2022-12-29T09:04:28;95592.16;;;6.75;100.00
12785;BME280;6456;42.680;23.260;2022-12-29T09:06:54;95564.72;;;6.55;100.00
12785;BME280;6456;42.680;23.260;2022-12-29T09:09:21;95614.72;;;6.92;100.00
12785;BME280;6456;42.680;23.260;2022-12-29T09:11:48;95632.38;;;7.06;100.00
12785;BME280;6456;42.680;23.260;2022-12-29T09:14:15;95552.47;;;6.63;100.00
12785;BME280;6456;42.680;23.260;2022-12-29T09:16:42;95529.44;;;6.59;100.00
12785;BME280;6456;42.680;23.260;2022-12-29T09:19:28;95623.78;;;7.36;100.00
12785;BME280;6456;42.680;23.260;2022-12-29T09:21:55;95624.59;;;7.37;100.00
12785;BME280;6456;42.680;23.260;2022-12-29T09:24:22;95609.50;;;7.47;100.00
12785;BME280;6456;42.680;23.260;2022-12-29T09:26:48;95519.38;;;6.94;100.00
12785;BME280;6456;42.680;23.260;2022-12-29T09:29:15;95599.72;;;7.41;100.00
12785;BME280;6456;42.680;23.260;2022-12-29T09:31:45;95600.88;;;7.38;100.00
12785;BME280;6456;42.680;23.260;2022-12-29T09:34:12;95543.69;;;7.11;100.00
12785;BME280;6456;42.680;23.260;2022-12-29T09:36:40;95523.13;;;6.92;100.00
12785;BME280;6456;42.680;23.260;2022-12-29T09:39:07;95562.13;;;7.26;100.00
12785;BME280;6456;42.680;23.260;2022-12-29T09:41:38;95558.47;;;7.35;100.00
12785;BME280;6456;42.680;23.260;2022-12-29T09:44:15;95583.19;;;7.40;100.00
12785;BME280;6456;42.680;23.260;2022-12-29T09:46:46;95520.44;;;7.16;100.00
12785;BME280;6456;42.680;23.260;2022-12-29T09:49:21;95534.41;;;7.39;100.00
12785;BME280;6456;42.680;23.260;2022-12-29T09:51:53;95604.31;;;8.08;100.00
12785;BME280;6456;42.680;23.260;2022-12-29T09:54:34;95482.16;;;7.54;100.00
12785;BME280;6456;42.680;23.260;2022-12-29T09:57:03;95555.22;;;8.17;100.00
12785;BME280;6456;42.680;23.260;2022-12-29T09:59:38;95563.03;;;8.33;100.00
12785;BME280;6456;42.680;23.260;2022-12-29T10:02:23;95588.19;;;8.42;100.00
12785;BME280;6456;42.680;23.260;2022-12-29T10:04:53;95579.88;;;8.38;100.00
12785;BME280;6456;42.680;23.260;2022-12-29T10:07:30;95536.59;;;8.12;100.00
12785;BME280;6456;42.680;23.260;2022-12-29T10:10:06;95559.34;;;8.42;100.00
12785;BME280;6456;42.680;23.260;2022-12-29T10:12:47;95475.44;;;7.97;100.00
12785;BME280;6456;42.680;23.260;2022-12-29T10:15:29;95560.47;;;8.62;100.00
12785;BME280;6456;42.680;23.260;2022-12-29T10:18:05;95539.16;;;8.65;98.98
12785;BME280;6456;42.680;23.260;2022-12-29T10:20:40;95568.03;;;8.94;99.06
12785;BME280;6456;42.680;23.260;2022-12-29T10:23:24;95527.50;;;8.82;98.70
12785;BME280;6456;42.680;23.260;2022-12-29T10:25:54;95557.47;;;9.17;98.46
12785;BME280;6456;42.680;23.260;2022-12-29T10:28:23;95434.53;;;8.33;97.00
12785;BME280;6456;42.680;23.260;2022-12-29T10:30:51;95556.56;;;8.95;95.70
12785;BME280;6456;42.680;23.260;2022-12-29T10:33:22;95498.94;;;8.50;96.10
12785;BME280;6456;42.680;23.260;2022-12-29T10:35:50;95516.91;;;8.61;95.79
12785;BME280;6456;42.680;23.260;2022-12-29T10:38:25;95556.00;;;8.85;96.98
12785;BME280;6456;42.680;23.260;2022-12-29T10:40:57;95544.25;;;8.81;97.11
12785;BME280;6456;42.680;23.260;2022-12-29T10:43:27;95525.94;;;8.73;97.30
12785;BME280;6456;42.680;23.260;2022-12-29T10:45:57;95475.81;;;8.54;97.15
12785;BME280;6456;42.680;23.260;2022-12-29T10:48:27;95471.47;;;8.75;96.61
12785;BME280;6456;42.680;23.260;2022-12-29T10:50:57;95523.88;;;9.13;95.95
12785;BME280;6456;42.680;23.260;2022-12-29T10:53:32;95462.97;;;8.73;95.14
12785;BME280;6456;42.680;23.260;2022-12-29T10:56:02;95467.22;;;8.74;95.09
12785;BME280;6456;42.680;23.260;2022-12-29T10:58:32;95417.19;;;8.61;94.89
12785;BME280;6456;42.680;23.260;2022-12-29T11:00:59;95505.50;;;9.27;94.57
12785;BME280;6456;42.680;23.260;2022-12-29T11:03:44;95518.25;;;9.45;94.31
12785;BME280;6456;42.680;23.260;2022-12-29T11:06:19;95466.81;;;9.36;93.42
12785;BME280;6456;42.680;23.260;2022-12-29T11:08:55;95506.16;;;9.65;92.59
12785;BME280;6456;42.680;23.260;2022-12-29T11:11:26;95402.84;;;9.08;92.39
12785;BME280;6456;42.680;23.260;2022-12-29T11:13:59;95416.06;;;8.99;92.53
12785;BME280;6456;42.680;23.260;2022-12-29T11:16:30;95440.75;;;9.34;92.17
12785;BME280;6456;42.680;23.260;2022-12-29T11:18:58;95467.97;;;9.48;92.34
12785;BME280;6456;42.680;23.260;2022-12-29T11:21:30;95450.88;;;9.37;93.79
12785;BME280;6456;42.680;23.260;2022-12-29T11:24:02;95396.00;;;9.07;93.15
12785;BME280;6456;42.680;23.260;2022-12-29T11:26:32;95437.44;;;9.47;92.90
12785;BME280;6456;42.680;23.260;2022-12-29T11:29:22;95446.06;;;9.41;92.75
12785;BME280;6456;42.680;23.260;2022-12-29T11:31:56;95384.38;;;9.16;93.32
12785;BME280;6456;42.680;23.260;2022-12-29T11:34:30;95404.41;;;9.38;91.83
12785;BME280;6456;42.680;23.260;2022-12-29T11:37:00;95406.31;;;9.44;93.76
12785;BME280;6456;42.680;23.260;2022-12-29T11:39:34;95467.13;;;9.83;93.01
12785;BME280;6456;42.680;23.260;2022-12-29T11:42:09;95506.19;;;10.22;91.80
12785;BME280;6456;42.680;23.260;2022-12-29T11:44:43;95378.28;;;9.51;91.31
12785;BME280;6456;42.680;23.260;2022-12-29T11:47:23;95372.75;;;9.67;90.43
12785;BME280;6456;42.680;23.260;2022-12-29T11:49:57;95387.16;;;9.71;90.06
12785;BME280;6456;42.680;23.260;2022-12-29T11:52:28;95372.13;;;9.65;90.28
12785;BME280;6456;42.680;23.260;2022-12-29T11:55:00;95414.19;;;9.86;89.35
12785;BME280;6456;42.680;23.260;2022-12-29T11:57:32;95468.19;;;10.10;90.42
12785;BME280;6456;42.680;23.260;2022-12-29T12:00:03;95386.53;;;9.69;89.23
12785;BME280;6456;42.680;23.260;2022-12-29T12:02:53;95439.47;;;10.08;88.84
12785;BME280;6456;42.680;23.260;2022-12-29T12:05:28;95409.94;;;9.85;88.80
12785;BME280;6456;42.680;23.260;2022-12-29T12:08:03;95381.56;;;9.59;89.70
12785;BME280;6456;42.680;23.260;2022-12-29T12:10:43;95358.88;;;9.52;90.14
12785;BME280;6456;42.680;23.260;2022-12-29T12:13:25;95416.25;;;9.91;89.33
12785;BME280;6456;42.680;23.260;2022-12-29T12:16:06;95405.84;;;9.83;89.71
12785;BME280;6456;42.680;23.260;2022-12-29T12:18:40;95394.22;;;9.71;89.40
12785;BME280;6456;42.680;23.260;2022-12-29T12:21:14;95479.69;;;10.23;91.12
12785;BME280;6456;42.680;23.260;2022-12-29T12:23:57;95445.13;;;10.26;90.85
12785;BME280;6456;42.680;23.260;2022-12-29T12:26:32;95423.69;;;10.08;89.94
12785;BME280;6456;42.680;23.260;2022-12-29T12:29:09;95386.63;;;10.03;89.81
12785;BME280;6456;42.680;23.260;2022-12-29T12:31:45;95460.13;;;10.60;89.07
12785;BME280;6456;42.680;23.260;2022-12-29T12:34:19;95459.72;;;10.57;89.21
12785;BME280;6456;42.680;23.260;2022-12-29T12:37:03;95395.88;;;10.20;88.60
12785;BME280;6456;42.680;23.260;2022-12-29T12:39:44;95462.63;;;10.68;88.36
12785;BME280;6456;42.680;23.260;2022-12-29T12:42:25;95393.94;;;10.29;88.30
12785;BME280;6456;42.680;23.260;2022-12-29T12:45:01;95385.22;;;10.28;88.08
12785;BME280;6456;42.680;23.260;2022-12-29T12:47:49;95372.09;;;10.28;87.34
12785;BME280;6456;42.680;23.260;2022-12-29T12:50:27;95455.06;;;10.93;86.61
12785;BME280;6456;42.680;23.260;2022-12-29T12:53:18;95459.50;;;10.86;86.85
12785;BME280;6456;42.680;23.260;2022-12-29T12:55:59;95396.38;;;10.30;87.08
12785;BME280;6456;42.680;23.260;2022-12-29T12:58:38;95436.50;;;10.67;86.98
12785;BME280;6456;42.680;23.260;2022-12-29T13:01:18;95371.59;;;10.18;87.81
12785;BME280;6456;42.680;23.260;2022-12-29T13:03:59;95394.31;;;10.26;87.86
12785;BME280;6456;42.680;23.260;2022-12-29T13:06:38;95378.91;;;10.23;87.83
12785;BME280;6456;42.680;23.260;2022-12-29T13:09:22;95452.22;;;10.60;87.88
12785;BME280;6456;42.680;23.260;2022-12-29T13:12:01;95399.19;;;10.29;89.00
12785;BME280;6456;42.680;23.260;2022-12-29T13:14:42;95384.25;;;10.08;88.88
12785;BME280;6456;42.680;23.260;2022-12-29T13:17:17;95400.06;;;10.36;88.61
12785;BME280;6456;42.680;23.260;2022-12-29T13:19:51;95412.03;;;10.45;88.44
12785;BME280;6456;42.680;23.260;2022-12-29T13:22:26;95460.59;;;10.70;88.03
12785;BME280;6456;42.680;23.260;2022-12-29T13:25:12;95430.94;;;10.55;87.74
12785;BME280;6456;42.680;23.260;2022-12-29T13:27:46;95391.72;;;10.32;87.17
12785;BME280;6456;42.680;23.260;2022-12-29T13:30:18;95342.88;;;9.96;86.86